Time;durP1;ratioP1;P1;durP2;ratioP2;P2;SDS_P1;SDS_P2;PMS_P1;PMS_P2;Temp;Humidity;BMP_temperature;BMP_pressure;BME280_temperature;BME280_humidity;BME280_pressure;Samples;Min_cycle;Max_cycle;Signal;HPM_P1;HPM_P2
2021/05/09 00:00:27;;;;;;;7.80;3.43;;;14.50;99.90;;;;;;5124428;27;20195;-76
2021/05/09 00:02:54;;;;;;;6.93;3.30;;;14.50;99.90;;;;;;5123401;27;20206;-73
2021/05/09 00:05:20;;;;;;;6.90;2.97;;;14.40;99.90;;;;;;5124923;27;20276;-73
2021/05/09 00:07:47;;;;;;;6.53;3.13;;;14.50;99.90;;;;;;5122507;27;20281;-73
2021/05/09 00:10:14;;;;;;;8.77;3.50;;;14.50;99.90;;;;;;5123524;27;20480;-74
2021/05/09 00:12:41;;;;;;;9.57;3.40;;;14.50;99.90;;;;;;5122428;27;20196;-74
2021/05/09 00:15:12;;;;;;;8.27;3.20;;;14.60;99.90;;;;;;5121147;27;20190;-73
2021/05/09 00:17:38;;;;;;;8.13;3.20;;;14.50;99.90;;;;;;5121951;27;20201;-76
2021/05/09 00:20:07;;;;;;;10.23;3.90;;;14.30;99.90;;;;;;5122417;27;20652;-75
2021/05/09 00:22:33;;;;;;;6.43;3.37;;;14.40;99.90;;;;;;5123084;27;20192;-74
2021/05/09 00:25:00;;;;;;;8.33;3.27;;;14.30;99.90;;;;;;5121858;27;20219;-75
2021/05/09 00:27:27;;;;;;;8.10;3.40;;;14.20;99.90;;;;;;5124145;27;20193;-76
2021/05/09 00:29:53;;;;;;;9.43;3.70;;;14.20;99.90;;;;;;5125770;27;20194;-74
2021/05/09 00:32:20;;;;;;;8.27;3.00;;;14.30;99.90;;;;;;5114004;28;20226;-73
2021/05/09 00:34:46;;;;;;;5.80;3.43;;;14.20;99.90;;;;;;5113515;28;20731;-73
2021/05/09 00:37:12;;;;;;;6.60;3.57;;;14.30;99.90;;;;;;5113817;28;20196;-73
2021/05/09 00:39:39;;;;;;;8.30;3.50;;;14.10;99.90;;;;;;5113431;28;20190;-75
2021/05/09 00:42:07;;;;;;;10.80;3.63;;;14.10;99.90;;;;;;5113511;28;20656;-73
2021/05/09 00:44:35;;;;;;;7.77;3.27;;;14.10;99.90;;;;;;5112553;28;20202;-73
2021/05/09 00:47:04;;;;;;;7.03;3.17;;;14.10;99.90;;;;;;5113631;28;20202;-75
2021/05/09 00:49:31;;;;;;;10.70;3.60;;;14.10;99.90;;;;;;5112588;28;20676;-73
2021/05/09 00:51:59;;;;;;;10.23;4.30;;;14.20;99.90;;;;;;5113009;28;20770;-73
2021/05/09 00:54:27;;;;;;;10.43;3.53;;;14.30;99.90;;;;;;5113495;28;20202;-75
2021/05/09 00:56:56;;;;;;;10.70;4.07;;;14.30;99.90;;;;;;5113256;28;20250;-74
2021/05/09 00:59:23;;;;;;;6.97;3.20;;;14.20;99.90;;;;;;5113652;28;20198;-73
2021/05/09 01:01:50;;;;;;;8.67;3.50;;;14.20;99.90;;;;;;5113633;28;20198;-74
2021/05/09 01:04:17;;;;;;;6.80;3.53;;;14.20;99.90;;;;;;5113233;28;20599;-73
2021/05/09 01:06:45;;;;;;;10.27;3.70;;;14.20;99.90;;;;;;5113670;28;20225;-73
2021/05/09 01:09:11;;;;;;;6.00;3.13;;;14.20;99.90;;;;;;5113174;28;20194;-75
2021/05/09 01:11:38;;;;;;;9.77;3.73;;;14.20;99.90;;;;;;5092829;28;20225;-73
2021/05/09 01:14:04;;;;;;;11.83;3.63;;;14.30;99.90;;;;;;5093282;28;20282;-73
2021/05/09 01:16:31;;;;;;;6.97;3.20;;;14.20;99.90;;;;;;5113007;28;20187;-75
2021/05/09 01:18:58;;;;;;;9.20;3.67;;;14.20;99.90;;;;;;5113415;28;20222;-75
2021/05/09 01:21:25;;;;;;;5.60;3.03;;;14.20;99.90;;;;;;5113280;28;20202;-72
2021/05/09 01:23:52;;;;;;;7.60;2.83;;;14.20;99.90;;;;;;5112920;28;20202;-74
2021/05/09 01:26:18;;;;;;;7.87;3.20;;;14.00;99.90;;;;;;5113345;28;20227;-73
2021/05/09 01:28:46;;;;;;;6.33;3.23;;;14.00;99.90;;;;;;5112909;28;20685;-75
2021/05/09 01:31:12;;;;;;;10.93;3.47;;;14.00;99.90;;;;;;5113163;28;20613;-75
2021/05/09 01:33:38;;;;;;;6.33;3.13;;;14.00;99.90;;;;;;5113229;28;20195;-73
2021/05/09 01:36:05;;;;;;;7.00;2.70;;;14.00;99.90;;;;;;5112837;28;20201;-76
2021/05/09 01:38:32;;;;;;;6.00;2.80;;;14.00;99.90;;;;;;5113475;28;20194;-72
2021/05/09 01:40:59;;;;;;;6.87;3.10;;;13.90;99.90;;;;;;5113050;28;20200;-74
2021/05/09 01:43:25;;;;;;;7.87;3.10;;;13.90;99.90;;;;;;5113361;28;20797;-73
2021/05/09 01:45:52;;;;;;;5.23;3.10;;;13.90;99.90;;;;;;5113197;28;20277;-73
2021/05/09 01:48:18;;;;;;;6.40;3.23;;;13.80;99.90;;;;;;5113602;28;20301;-73
2021/05/09 01:50:44;;;;;;;6.17;2.70;;;13.80;99.90;;;;;;5112973;28;20232;-72
2021/05/09 01:53:11;;;;;;;7.17;2.90;;;13.80;99.90;;;;;;5113523;28;20202;-73
2021/05/09 01:55:38;;;;;;;7.43;2.80;;;13.70;99.90;;;;;;5112975;28;20229;-73
2021/05/09 01:58:04;;;;;;;7.53;3.60;;;13.70;99.90;;;;;;5117075;28;20198;-74
2021/05/09 02:00:30;;;;;;;9.37;4.00;;;13.60;99.90;;;;;;5116573;28;20282;-74
2021/05/09 02:02:57;;;;;;;7.97;3.63;;;13.50;99.90;;;;;;5116663;28;20603;-73
2021/05/09 02:05:23;;;;;;;9.27;3.20;;;13.50;99.90;;;;;;5116504;28;20194;-73
2021/05/09 02:07:49;;;;;;;6.87;3.30;;;13.20;99.90;;;;;;5116165;28;20194;-74
2021/05/09 02:10:16;;;;;;;8.60;3.43;;;13.10;99.90;;;;;;5116670;28;20199;-73
2021/05/09 02:12:43;;;;;;;9.33;3.33;;;13.20;99.90;;;;;;5116397;27;20300;-73
2021/05/09 02:15:10;;;;;;;8.67;3.80;;;13.20;99.90;;;;;;5116605;28;20195;-73
2021/05/09 02:17:36;;;;;;;9.70;3.40;;;13.10;99.90;;;;;;5116142;28;20258;-73
2021/05/09 02:20:07;;;;;;;6.87;2.90;;;13.10;99.90;;;;;;5115721;28;20200;-72
2021/05/09 02:22:33;;;;;;;6.13;3.17;;;13.10;99.90;;;;;;5116253;28;20292;-73
2021/05/09 02:24:59;;;;;;;10.70;3.90;;;13.10;99.90;;;;;;5116113;28;20205;-73
2021/05/09 02:27:26;;;;;;;8.50;4.40;;;13.10;99.90;;;;;;5116403;28;20289;-73
2021/05/09 02:29:53;;;;;;;13.77;4.00;;;13.10;99.90;;;;;;5115679;28;20270;-74
2021/05/09 02:32:19;;;;;;;7.90;3.83;;;13.10;99.90;;;;;;5116425;28;20420;-73
2021/05/09 02:34:46;;;;;;;11.50;3.70;;;13.10;99.90;;;;;;5115984;28;20198;-74
2021/05/09 02:37:12;;;;;;;12.03;3.70;;;13.20;99.90;;;;;;5115946;28;20198;-72
2021/05/09 02:39:38;;;;;;;8.90;3.23;;;13.30;99.90;;;;;;5116405;28;20198;-73
2021/05/09 02:42:05;;;;;;;8.20;3.20;;;13.40;99.90;;;;;;5115565;28;20209;-75
2021/05/09 02:44:31;;;;;;;7.63;3.33;;;13.50;99.90;;;;;;5115330;28;20190;-73
2021/05/09 02:46:59;;;;;;;6.43;3.30;;;13.60;99.90;;;;;;5115884;28;20284;-73
2021/05/09 02:49:25;;;;;;;7.77;3.63;;;13.60;99.90;;;;;;5115475;28;20194;-73
2021/05/09 02:51:51;;;;;;;6.43;2.93;;;13.60;99.90;;;;;;5114991;28;20759;-73
2021/05/09 02:54:18;;;;;;;6.40;3.03;;;13.60;99.90;;;;;;5115811;28;20198;-76
2021/05/09 02:56:44;;;;;;;6.60;3.20;;;13.50;99.90;;;;;;5115529;28;20197;-74
2021/05/09 02:59:11;;;;;;;7.93;3.10;;;13.60;99.90;;;;;;5115205;28;20612;-72
2021/05/09 03:01:37;;;;;;;9.93;3.00;;;13.50;99.90;;;;;;5115498;28;20254;-73
2021/05/09 03:04:05;;;;;;;5.20;2.83;;;13.40;99.90;;;;;;5115350;28;20201;-75
2021/05/09 03:06:31;;;;;;;7.47;3.03;;;13.40;99.90;;;;;;5115295;28;20191;-75
2021/05/09 03:08:57;;;;;;;5.87;2.73;;;13.30;99.90;;;;;;5114852;28;20233;-73
2021/05/09 03:11:28;;;;;;;7.27;2.93;;;13.30;99.90;;;;;;5115062;28;20301;-74
2021/05/09 03:13:54;;;;;;;7.13;2.87;;;13.20;99.90;;;;;;5115594;28;20194;-75
2021/05/09 03:16:20;;;;;;;9.90;3.30;;;13.20;99.90;;;;;;5114819;28;20194;-73
2021/05/09 03:18:47;;;;;;;10.03;3.20;;;13.20;99.90;;;;;;5114833;28;20204;-73
2021/05/09 03:21:14;;;;;;;6.30;2.57;;;13.10;99.90;;;;;;5114877;28;20651;-75
2021/05/09 03:23:40;;;;;;;6.33;3.03;;;13.00;99.90;;;;;;5114848;28;20202;-72
2021/05/09 03:26:07;;;;;;;7.40;3.40;;;13.10;99.90;;;;;;5114792;28;20194;-73
2021/05/09 03:28:33;;;;;;;6.73;3.10;;;12.90;99.90;;;;;;5114780;28;20194;-73
2021/05/09 03:30:59;;;;;;;8.03;3.03;;;12.90;99.90;;;;;;5114360;28;20699;-76
2021/05/09 03:33:26;;;;;;;6.47;2.80;;;12.90;99.90;;;;;;5114704;28;20198;-75
2021/05/09 03:35:52;;;;;;;5.17;2.67;;;12.80;99.90;;;;;;5114759;28;20200;-72
2021/05/09 03:38:19;;;;;;;4.53;2.70;;;12.90;99.90;;;;;;5114696;28;20574;-74
2021/05/09 03:40:45;;;;;;;7.33;3.17;;;12.90;99.90;;;;;;5114237;28;20567;-73
2021/05/09 03:43:12;;;;;;;5.40;2.73;;;12.80;99.90;;;;;;5114497;28;20212;-73
2021/05/09 03:45:38;;;;;;;6.10;3.10;;;12.80;99.90;;;;;;5114623;28;20194;-74
2021/05/09 03:48:05;;;;;;;6.67;3.03;;;12.70;99.90;;;;;;5114232;28;20195;-73
2021/05/09 03:50:31;;;;;;;6.47;3.00;;;12.70;99.90;;;;;;5094381;28;20568;-74
2021/05/09 03:52:58;;;;;;;5.67;2.90;;;12.60;99.90;;;;;;5094311;28;20198;-75
2021/05/09 03:55:25;;;;;;;5.63;3.10;;;12.60;99.90;;;;;;5113177;28;20205;-73
2021/05/09 03:57:51;;;;;;;9.00;3.53;;;12.60;99.90;;;;;;5114545;28;20277;-73
2021/05/09 04:00:18;;;;;;;9.13;3.37;;;12.60;99.90;;;;;;5114026;28;20202;-75
2021/05/09 04:02:45;;;;;;;5.87;3.23;;;12.50;99.90;;;;;;5114482;28;20301;-73
2021/05/09 04:05:13;;;;;;;8.73;3.47;;;12.40;99.90;;;;;;5114396;28;20208;-73
2021/05/09 04:07:40;;;;;;;6.33;3.37;;;12.40;99.90;;;;;;5113944;28;20561;-73
2021/05/09 04:10:07;;;;;;;7.43;3.33;;;12.50;99.90;;;;;;5114051;28;20226;-73
2021/05/09 04:12:34;;;;;;;8.13;3.37;;;12.60;99.90;;;;;;5113921;28;20243;-72
2021/05/09 04:15:01;;;;;;;4.33;3.30;;;12.70;99.90;;;;;;5113314;28;20194;-73
2021/05/09 04:17:27;;;;;;;6.00;3.43;;;12.80;99.90;;;;;;5113883;28;20197;-76
2021/05/09 04:19:53;;;;;;;5.83;2.90;;;12.80;99.90;;;;;;5113078;28;20195;-73
2021/05/09 04:22:20;;;;;;;6.33;3.03;;;12.80;99.90;;;;;;5113935;28;20293;-73
2021/05/09 04:24:46;;;;;;;8.00;4.07;;;12.90;99.90;;;;;;5113762;28;20611;-73
2021/05/09 04:27:12;;;;;;;6.30;3.23;;;12.90;99.90;;;;;;5114026;28;20279;-73
2021/05/09 04:29:40;;;;;;;6.07;3.00;;;13.00;99.90;;;;;;5113378;28;20190;-73
2021/05/09 04:32:07;;;;;;;4.60;2.77;;;13.20;99.90;;;;;;5114000;28;20244;-74
2021/05/09 04:34:33;;;;;;;5.63;2.67;;;13.20;99.90;;;;;;5113662;28;20284;-73
2021/05/09 04:36:59;;;;;;;6.73;3.10;;;13.30;99.90;;;;;;5113701;28;20209;-73
2021/05/09 04:39:26;;;;;;;5.20;2.87;;;13.40;99.90;;;;;;5113649;28;20208;-72
2021/05/09 04:41:52;;;;;;;5.63;3.07;;;13.80;99.90;;;;;;5113732;28;20304;-73
2021/05/09 04:44:20;;;;;;;4.67;2.60;;;14.70;99.90;;;;;;5113363;28;20250;-73
2021/05/09 04:46:47;;;;;;;6.50;2.53;;;15.50;99.90;;;;;;5113774;28;20199;-74
2021/05/09 04:49:13;;;;;;;6.53;2.47;;;16.30;99.90;;;;;;5113568;28;20194;-74
2021/05/09 04:51:40;;;;;;;3.83;2.47;;;17.10;99.90;;;;;;5113473;28;20218;-74
2021/05/09 04:54:06;;;;;;;4.00;2.40;;;17.70;99.90;;;;;;5113497;28;20747;-74
2021/05/09 04:56:33;;;;;;;3.07;2.30;;;18.10;99.90;;;;;;5113250;28;20190;-73
2021/05/09 04:58:59;;;;;;;4.00;2.57;;;18.30;99.90;;;;;;5113444;28;20212;-73
2021/05/09 05:01:26;;;;;;;3.43;2.00;;;18.10;99.90;;;;;;5113409;28;20284;-73
2021/05/09 05:03:53;;;;;;;4.97;2.07;;;17.90;99.90;;;;;;5113094;28;20229;-73
2021/05/09 05:06:19;;;;;;;2.40;2.07;;;17.80;99.90;;;;;;5113555;28;20336;-75
2021/05/09 05:08:46;;;;;;;3.73;2.30;;;17.30;99.90;;;;;;5113179;28;20243;-73
2021/05/09 05:11:12;;;;;;;7.13;2.17;;;17.30;99.90;;;;;;5102107;28;20220;-73
2021/05/09 05:13:39;;;;;;;5.93;2.40;;;17.70;99.90;;;;;;5113255;28;20724;-73
2021/05/09 05:16:07;;;;;;;4.50;2.40;;;18.30;99.90;;;;;;5112998;28;20205;-73
2021/05/09 05:18:34;;;;;;;3.30;2.10;;;19.00;99.90;;;;;;5113284;28;20198;-74
2021/05/09 05:21:03;;;;;;;4.30;2.20;;;19.30;99.90;;;;;;5112815;28;20208;-75
2021/05/09 05:23:30;;;;;;;4.03;2.30;;;19.50;99.90;;;;;;5113000;28;20202;-75
2021/05/09 05:25:57;;;;;;;3.70;2.10;;;19.30;99.90;;;;;;5112968;28;20731;-75
2021/05/09 05:28:24;;;;;;;4.37;2.33;;;19.30;99.90;;;;;;5113557;28;20281;-73
2021/05/09 05:30:51;;;;;;;2.90;2.13;;;19.10;99.90;;;;;;5113917;28;20292;-73
2021/05/09 05:33:25;;;;;;;3.77;2.30;;;19.20;99.90;;;;;;5116883;28;20656;-75
2021/05/09 05:35:52;;;;;;;4.30;2.20;;;19.70;99.90;;;;;;5117162;28;20200;-75
2021/05/09 05:38:19;;;;;;;3.10;2.30;;;20.50;99.90;;;;;;5116742;28;20263;-72
2021/05/09 05:40:48;;;;;;;3.97;2.17;;;21.40;99.90;;;;;;5116999;28;20196;-72
2021/05/09 05:43:14;;;;;;;3.73;2.20;;;22.80;99.90;;;;;;5117197;28;20633;-75
2021/05/09 05:45:41;;;;;;;2.88;2.17;;;24.50;99.90;;;;;;5116663;28;20201;-74
2021/05/09 05:48:08;;;;;;;2.40;1.80;;;25.60;99.90;;;;;;5117084;28;20190;-73
2021/05/09 05:50:34;;;;;;;3.08;2.13;;;26.60;99.90;;;;;;5116757;28;20601;-75
2021/05/09 05:53:00;;;;;;;2.83;1.88;;;26.30;99.90;;;;;;5116471;28;20221;-73
2021/05/09 05:55:27;;;;;;;5.70;2.05;;;26.70;99.90;;;;;;5116804;28;20659;-73
2021/05/09 05:57:54;;;;;;;4.45;2.05;;;26.20;99.90;;;;;;5116554;28;20199;-73
2021/05/09 06:00:21;;;;;;;2.78;2.08;;;25.40;99.90;;;;;;5116655;28;20203;-75
2021/05/09 06:02:47;;;;;;;6.60;2.30;;;24.40;99.90;;;;;;5116480;28;20194;-72
2021/05/09 06:05:14;;;;;;;4.38;2.03;;;23.90;99.90;;;;;;5116319;28;20197;-75
2021/05/09 06:07:40;;;;;;;3.05;2.00;;;23.90;99.90;;;;;;5116456;28;20225;-73
2021/05/09 06:10:07;;;;;;;3.83;2.00;;;24.10;99.90;;;;;;5116502;28;20557;-75
2021/05/09 06:12:35;;;;;;;5.53;2.10;;;24.40;99.90;;;;;;5116251;28;20274;-73
2021/05/09 06:15:01;;;;;;;3.30;2.08;;;24.00;99.90;;;;;;5116565;28;20324;-73
2021/05/09 06:17:27;;;;;;;4.28;1.90;;;23.40;99.90;;;;;;5115965;28;20218;-73
2021/05/09 06:19:54;;;;;;;3.58;2.10;;;23.00;99.90;;;;;;5116232;28;20289;-73
2021/05/09 06:22:20;;;;;;;4.47;2.20;;;22.20;99.90;;;;;;5116231;28;20206;-72
2021/05/09 06:24:46;;;;;;;2.60;2.00;;;21.70;99.90;;;;;;5115918;28;20198;-73
2021/05/09 06:27:12;;;;;;;2.87;2.07;;;21.50;99.90;;;;;;5116304;28;20194;-72
2021/05/09 06:29:40;;;;;;;5.00;2.22;;;21.50;99.90;;;;;;5115798;28;20285;-72
2021/05/09 06:32:07;;;;;;;3.40;2.47;;;21.20;99.90;;;;;;5115803;28;20221;-73
2021/05/09 06:34:33;;;;;;;3.33;2.20;;;21.00;99.90;;;;;;5115960;28;20190;-72
2021/05/09 06:36:59;;;;;;;4.50;2.20;;;21.00;99.90;;;;;;5115727;28;20678;-72
2021/05/09 06:39:28;;;;;;;3.57;2.13;;;21.00;99.90;;;;;;5116116;28;20197;-72
2021/05/09 06:41:56;;;;;;;3.90;2.47;;;20.70;99.90;;;;;;5115189;28;20202;-73
2021/05/09 06:44:26;;;;;;;5.17;2.30;;;20.50;99.90;;;;;;5114819;28;20675;-73
2021/05/09 06:46:53;;;;;;;3.07;2.43;;;20.30;99.90;;;;;;5115566;28;20194;-75
2021/05/09 06:49:19;;;;;;;5.07;2.47;;;20.20;99.90;;;;;;5115583;28;20205;-73
2021/05/09 06:51:46;;;;;;;3.53;2.20;;;20.00;99.90;;;;;;5115512;28;20589;-73
2021/05/09 06:54:12;;;;;;;3.27;1.97;;;20.10;99.90;;;;;;5115512;28;20254;-72
2021/05/09 06:56:39;;;;;;;2.77;2.10;;;20.00;99.90;;;;;;5115278;28;20691;-73
2021/05/09 06:59:05;;;;;;;3.17;2.03;;;19.90;99.90;;;;;;5115302;28;20198;-73
2021/05/09 07:01:31;;;;;;;4.77;2.30;;;20.00;99.90;;;;;;5115267;28;20656;-73
2021/05/09 07:03:59;;;;;;;2.90;2.30;;;20.30;99.90;;;;;;5114763;28;20194;-73
2021/05/09 07:06:25;;;;;;;4.13;2.13;;;20.40;99.90;;;;;;5115488;28;20201;-74
2021/05/09 07:08:52;;;;;;;4.10;2.30;;;20.70;99.90;;;;;;5115295;28;20204;-73
2021/05/09 07:11:18;;;;;;;4.60;2.10;;;20.80;99.90;;;;;;5115167;27;20320;-72
2021/05/09 07:13:44;;;;;;;3.03;2.30;;;21.10;99.90;;;;;;5115035;28;20696;-72
2021/05/09 07:16:12;;;;;;;4.75;2.28;;;21.30;99.90;;;;;;5114853;28;20232;-74
2021/05/09 07:18:38;;;;;;;4.23;2.47;;;21.40;99.90;;;;;;5115207;28;20198;-75
2021/05/09 07:21:12;;;;;;;4.03;2.33;;;21.70;99.90;;;;;;5115041;28;20285;-72
2021/05/09 07:23:44;;;;;;;3.00;2.03;;;21.80;99.90;;;;;;5115050;28;20210;-73
2021/05/09 07:26:11;;;;;;;3.75;2.03;;;22.20;99.90;;;;;;5114930;28;20290;-75
2021/05/09 07:28:37;;;;;;;5.00;2.30;;;22.30;99.90;;;;;;5114792;28;20204;-72
2021/05/09 07:31:03;;;;;;;3.03;2.17;;;22.50;99.90;;;;;;5114506;28;20203;-73
2021/05/09 07:33:30;;;;;;;4.78;2.15;;;22.60;99.90;;;;;;5114906;28;20723;-73
2021/05/09 07:35:56;;;;;;;4.35;2.40;;;22.70;99.90;;;;;;5113497;28;20304;-73
2021/05/09 07:38:24;;;;;;;4.93;2.78;;;22.70;99.90;;;;;;5113281;28;20206;-73
2021/05/09 07:40:50;;;;;;;3.40;2.17;;;22.70;99.90;;;;;;5113344;28;20202;-72
2021/05/09 07:43:16;;;;;;;6.28;2.15;;;23.20;99.90;;;;;;5112988;28;20190;-75
2021/05/09 07:45:43;;;;;;;2.85;1.80;;;23.50;99.90;;;;;;5113042;28;20247;-73
2021/05/09 07:48:10;;;;;;;3.35;1.80;;;24.00;99.90;;;;;;5122320;27;20190;-75
2021/05/09 07:50:37;;;;;;;3.65;1.70;;;24.20;99.90;;;;;;5132114;27;20186;-76
2021/05/09 07:53:04;;;;;;;2.58;1.98;;;23.90;99.90;;;;;;5114002;28;20695;-74
2021/05/09 07:55:32;;;;;;;9.60;2.40;;;23.70;99.90;;;;;;5114035;28;20198;-75
2021/05/09 07:57:58;;;;;;;3.50;1.90;;;23.70;99.90;;;;;;5113927;27;20683;-76
2021/05/09 08:00:25;;;;;;;2.25;1.75;;;23.70;99.90;;;;;;5113044;27;20206;-76
2021/05/09 08:02:52;;;;;;;5.38;1.92;;;23.80;99.90;;;;;;5119486;27;20264;-73
2021/05/09 08:05:20;;;;;;;3.17;1.90;;;23.70;99.90;;;;;;5113571;28;20213;-73
2021/05/09 08:07:50;;;;;;;4.55;1.95;;;23.40;99.90;;;;;;5112791;28;20285;-73
2021/05/09 08:10:17;;;;;;;4.60;1.98;;;23.70;99.90;;;;;;5112770;28;20218;-73
2021/05/09 08:12:44;;;;;;;2.78;1.92;;;24.30;99.90;;;;;;5112300;28;20218;-73
2021/05/09 08:15:11;;;;;;;2.20;2.00;;;25.10;99.90;;;;;;5113729;28;20218;-73
2021/05/09 08:17:38;;;;;;;6.03;2.05;;;25.30;99.90;;;;;;5112739;27;20583;-76
2021/05/09 08:20:05;;;;;;;2.50;1.98;;;25.30;99.90;;;;;;5114763;27;20197;-73
2021/05/09 08:22:32;;;;;;;3.22;2.90;;;25.00;99.90;;;;;;5116573;27;20194;-73
2021/05/09 08:24:58;;;;;;;3.75;1.90;;;24.80;99.90;;;;;;5117419;27;20205;-75
2021/05/09 08:27:28;;;;;;;3.97;2.03;;;24.30;99.90;;;;;;5114379;27;20586;-73
2021/05/09 08:29:56;;;;;;;2.38;1.90;;;24.10;99.90;;;;;;5117111;27;20197;-73
2021/05/09 08:32:23;;;;;;;4.88;2.22;;;23.70;99.90;;;;;;5122344;27;20320;-73
2021/05/09 08:34:49;;;;;;;4.65;2.20;;;23.40;99.90;;;;;;5123156;27;20204;-74
2021/05/09 08:37:16;;;;;;;4.25;2.10;;;23.40;99.90;;;;;;5123659;27;20232;-73
2021/05/09 08:39:42;;;;;;;4.30;2.30;;;24.10;99.90;;;;;;5125338;27;20198;-74
2021/05/09 08:42:08;;;;;;;3.03;1.98;;;25.10;99.90;;;;;;5123469;27;20198;-73
2021/05/09 08:44:35;;;;;;;3.40;2.10;;;25.80;99.90;;;;;;5125007;27;20193;-77
2021/05/09 08:47:03;;;;;;;6.15;2.42;;;26.30;99.90;;;;;;5124979;27;20641;-75
2021/05/09 08:49:30;;;;;;;2.97;2.28;;;26.30;99.90;;;;;;5121037;27;20193;-74
2021/05/09 08:51:57;;;;;;;2.63;1.70;;;26.40;99.90;;;;;;5123283;27;20222;-74
2021/05/09 08:54:24;;;;;;;4.82;2.00;;;27.20;99.90;;;;;;5124570;27;20190;-76
2021/05/09 08:56:50;;;;;;;6.35;2.10;;;27.30;99.90;;;;;;5123284;27;20225;-75
2021/05/09 08:59:16;;;;;;;4.13;2.05;;;26.80;99.90;;;;;;5123506;27;20191;-74
2021/05/09 09:01:43;;;;;;;4.28;2.05;;;26.00;99.90;;;;;;5124606;28;20276;-75
2021/05/09 09:04:13;;;;;;;4.95;2.05;;;25.50;99.90;;;;;;5122804;28;20194;-76
2021/05/09 09:06:40;;;;;;;4.68;2.10;;;25.60;99.90;;;;;;5124778;27;20193;-73
2021/05/09 09:09:07;;;;;;;4.75;2.30;;;25.30;99.90;;;;;;5128454;27;20185;-73
2021/05/09 09:11:33;;;;;;;3.30;2.28;;;24.80;99.90;;;;;;5127642;27;20217;-73
2021/05/09 09:14:10;;;;;;;3.38;2.03;;;24.30;99.90;;;;;;5126767;27;20663;-74
2021/05/09 09:16:38;;;;;;;5.93;2.60;;;23.80;99.90;;;;;;5126488;27;20228;-74
2021/05/09 09:19:08;;;;;;;4.78;2.30;;;23.40;99.90;;;;;;5126280;27;20277;-76
2021/05/09 09:21:36;;;;;;;3.75;2.50;;;23.00;99.90;;;;;;5127282;27;20202;-73
2021/05/09 09:24:05;;;;;;;7.95;2.45;;;22.90;99.90;;;;;;5128025;27;22023;-73
2021/05/09 09:26:37;;;;;;;4.45;2.30;;;22.80;99.90;;;;;;5124676;27;20289;-73
2021/05/09 09:29:28;;;;;;;4.60;2.22;;;22.80;99.90;;;;;;5125723;27;20612;-74
2021/05/09 09:31:56;;;;;;;6.22;2.67;;;22.90;99.90;;;;;;5115656;28;20314;-74
2021/05/09 09:34:36;;;;;;;2.55;2.20;;;22.90;99.90;;;;;;5114692;28;20205;-75
2021/05/09 09:37:03;;;;;;;3.22;2.28;;;23.60;99.90;;;;;;5114261;28;20273;-76
2021/05/09 09:39:48;;;;;;;5.53;2.40;;;24.30;99.90;;;;;;5116382;27;20217;-74
2021/05/09 09:42:15;;;;;;;3.92;2.38;;;25.80;99.90;;;;;;5116566;28;20200;-77
2021/05/09 09:44:42;;;;;;;3.55;2.10;;;26.90;99.90;;;;;;5105274;27;20641;-74
2021/05/09 09:47:08;;;;;;;4.72;2.35;;;28.60;99.90;;;;;;5117936;27;20194;-75
2021/05/09 09:49:36;;;;;;;4.93;2.10;;;29.90;99.90;;;;;;5124690;27;20248;-75
2021/05/09 09:52:05;;;;;;;2.65;2.25;;;30.00;99.90;;;;;;5122569;27;20713;-74
2021/05/09 09:54:37;;;;;;;6.03;2.05;;;30.40;99.90;;;;;;5134216;27;20280;-74
2021/05/09 09:57:06;;;;;;;5.15;2.45;;;31.20;99.90;;;;;;5116448;27;20243;-75
2021/05/09 09:59:34;;;;;;;3.47;2.05;;;31.40;99.90;;;;;;5115577;27;20194;-75
2021/05/09 10:02:02;;;;;;;2.22;2.03;;;31.30;99.90;;;;;;5131042;27;20202;-75
2021/05/09 10:04:28;;;;;;;4.45;2.20;;;30.50;99.90;;;;;;5126082;27;20300;-74
2021/05/09 10:06:54;;;;;;;3.08;2.30;;;29.40;99.90;;;;;;5118640;27;20282;-74
2021/05/09 10:09:22;;;;;;;3.25;2.45;;;30.20;99.90;;;;;;5119588;27;20229;-76
2021/05/09 10:11:48;;;;;;;3.20;2.40;;;30.30;99.90;;;;;;5129185;27;20312;-74
2021/05/09 10:14:16;;;;;;;4.03;2.13;;;30.10;99.90;;;;;;5123383;27;20198;-73
2021/05/09 10:16:47;;;;;;;6.10;2.50;;;29.50;99.90;;;;;;5122916;27;20200;-74
2021/05/09 10:19:16;;;;;;;3.40;1.95;;;28.30;99.90;;;;;;5125655;27;20285;-75
2021/05/09 10:21:43;;;;;;;6.63;2.50;;;27.90;99.90;;;;;;5123622;27;20204;-74
2021/05/09 10:24:11;;;;;;;5.18;2.40;;;28.10;99.90;;;;;;5119346;27;20194;-75
2021/05/09 10:26:50;;;;;;;4.88;2.25;;;28.80;99.90;;;;;;5119297;27;20198;-74
2021/05/09 10:29:59;;;;;;;8.45;2.67;;;28.20;99.90;;;;;;5116459;27;20735;-74
2021/05/09 10:32:46;;;;;;;4.68;2.30;;;27.00;99.90;;;;;;5116303;27;20628;-74
2021/05/09 10:35:12;;;;;;;9.30;2.50;;;25.80;99.90;;;;;;5114307;27;20531;-73
2021/05/09 10:38:00;;;;;;;3.90;2.45;;;25.10;99.90;;;;;;5122302;27;20250;-75
2021/05/09 10:40:28;;;;;;;4.70;2.38;;;24.30;99.90;;;;;;5122334;27;20186;-74
2021/05/09 10:43:39;;;;;;;5.47;2.38;;;23.70;99.90;;;;;;5119302;27;20201;-74
2021/05/09 10:46:07;;;;;;;7.53;3.20;;;23.40;99.90;;;;;;5116387;27;20196;-74
2021/05/09 10:48:34;;;;;;;7.43;3.10;;;23.00;99.90;;;;;;5121947;27;20190;-74
2021/05/09 10:51:29;;;;;;;6.07;2.65;;;22.70;99.90;;;;;;5122026;27;20403;-74
2021/05/09 10:53:56;;;;;;;6.85;2.92;;;22.20;99.90;;;;;;5118468;27;20202;-74
2021/05/09 10:56:35;;;;;;;3.75;2.88;;;22.00;99.90;;;;;;5116649;27;20219;-76
2021/05/09 10:59:03;;;;;;;4.65;3.10;;;21.50;99.90;;;;;;5110191;27;20202;-75
2021/05/09 11:01:32;;;;;;;5.72;3.40;;;21.10;99.90;;;;;;5114969;27;20222;-77
2021/05/09 11:04:01;;;;;;;6.37;3.97;;;20.80;99.90;;;;;;5112884;27;20312;-76
2021/05/09 11:06:49;;;;;;;4.23;3.30;;;20.50;99.90;;;;;;5113687;27;20216;-75
2021/05/09 11:09:29;;;;;;;8.13;3.83;;;20.10;99.90;;;;;;5111190;27;20198;-76
2021/05/09 11:12:01;;;;;;;5.53;3.23;;;19.90;99.90;;;;;;5105270;27;20206;-76
2021/05/09 11:14:35;;;;;;;6.40;3.10;;;20.00;99.90;;;;;;5109289;27;20186;-75
2021/05/09 11:17:10;;;;;;;8.60;3.20;;;19.90;99.90;;;;;;5117680;27;20296;-76
2021/05/09 11:19:40;;;;;;;4.03;2.97;;;19.90;99.90;;;;;;5113682;27;20178;-77
2021/05/09 11:22:07;;;;;;;4.43;3.00;;;20.10;99.90;;;;;;5116809;27;20199;-75
2021/05/09 11:24:35;;;;;;;3.67;3.10;;;20.30;99.90;;;;;;5114250;27;20201;-77
2021/05/09 11:27:08;;;;;;;6.13;3.20;;;20.60;99.90;;;;;;5103249;28;20285;-76
2021/05/09 11:29:35;;;;;;;6.43;3.63;;;21.00;99.90;;;;;;5106333;27;20179;-76
2021/05/09 11:32:08;;;;;;;4.35;3.00;;;22.00;99.90;;;;;;5115169;27;20645;-77
2021/05/09 11:34:35;;;;;;;5.82;2.65;;;23.40;99.90;;;;;;5123748;27;20200;-73
2021/05/09 11:37:01;;;;;;;4.30;2.90;;;24.70;99.90;;;;;;5117988;27;20296;-75
2021/05/09 11:39:36;;;;;;;3.88;2.85;;;25.90;99.90;;;;;;5105437;28;20198;-74
2021/05/09 11:42:08;;;;;;;3.95;2.30;;;27.20;99.90;;;;;;5110113;28;20256;-74
2021/05/09 11:44:39;;;;;;;3.05;2.47;;;27.60;99.90;;;;;;5107008;27;20619;-73
2021/05/09 11:47:09;;;;;;;5.10;2.03;;;28.00;99.90;;;;;;5105189;28;20184;-75
2021/05/09 11:49:36;;;;;;;4.82;2.50;;;28.40;99.90;;;;;;5124877;27;20285;-73
2021/05/09 11:52:05;;;;;;;3.55;2.45;;;28.40;99.90;;;;;;5121229;27;20214;-73
2021/05/09 11:54:33;;;;;;;4.40;2.47;;;28.20;99.90;;;;;;5120573;27;20498;-73
2021/05/09 11:57:02;;;;;;;5.82;2.65;;;28.00;99.90;;;;;;5119433;27;20609;-73
2021/05/09 11:59:42;;;;;;;5.28;2.95;;;27.70;99.90;;;;;;5119123;27;20276;-73
2021/05/09 12:02:29;;;;;;;5.00;2.55;;;27.10;99.90;;;;;;5112457;27;20216;-76
2021/05/09 12:04:59;;;;;;;4.90;2.63;;;27.10;99.90;;;;;;5114446;27;20221;-73
2021/05/09 12:07:27;;;;;;;4.65;2.65;;;27.60;99.90;;;;;;5112568;27;20285;-75
2021/05/09 12:09:57;;;;;;;5.07;2.88;;;28.40;99.90;;;;;;5116678;27;20618;-73
2021/05/09 12:12:24;;;;;;;7.95;2.60;;;29.00;99.90;;;;;;5108614;28;20230;-74
2021/05/09 12:14:53;;;;;;;7.85;2.75;;;29.40;99.90;;;;;;5112822;27;20226;-74
2021/05/09 12:17:22;;;;;;;4.22;3.00;;;29.80;99.90;;;;;;5112639;28;20229;-75
2021/05/09 12:19:49;;;;;;;6.93;4.22;;;29.90;99.90;;;;;;5115363;27;20294;-76
2021/05/09 12:22:16;;;;;;;5.40;3.00;;;29.80;99.90;;;;;;5115242;27;20191;-76
2021/05/09 12:24:51;;;;;;;4.45;2.47;;;29.80;99.90;;;;;;5115918;27;20571;-76
2021/05/09 12:27:17;;;;;;;7.50;2.33;;;29.20;99.90;;;;;;5118210;27;20194;-74
2021/05/09 12:29:45;;;;;;;4.07;2.20;;;29.20;99.90;;;;;;5116552;27;20208;-73
2021/05/09 12:32:24;;;;;;;6.70;2.50;;;29.60;99.90;;;;;;5115906;27;20578;-75
2021/05/09 12:35:08;;;;;;;2.28;2.08;;;29.40;99.90;;;;;;5116566;27;20194;-74
2021/05/09 12:37:35;;;;;;;6.47;2.60;;;29.50;99.90;;;;;;5120178;27;20269;-77
2021/05/09 12:40:19;;;;;;;4.78;2.70;;;29.70;99.90;;;;;;5113119;27;20198;-76
2021/05/09 12:43:05;;;;;;;7.00;2.33;;;30.00;99.90;;;;;;5112757;27;20203;-74
2021/05/09 12:45:41;;;;;;;3.78;2.20;;;29.20;99.90;;;;;;5121419;27;20734;-73
2021/05/09 12:48:16;;;;;;;4.35;2.45;;;29.00;99.90;;;;;;5122646;27;20618;-74
2021/05/09 12:50:50;;;;;;;3.28;2.38;;;29.00;99.90;;;;;;5117199;28;20544;-74